»·PEaware :: N470MA KBFL-KSBA

N470MA :: KBFL-KSBA

FLIGHT INFORMATION

Flight Status: Arrived
Operator: Privately registered:
United States
More flights under this callsign
Pilot: Victor C. (32144)
Aircraft: PIPER PA-44 SEMINOLE
(PA44)
More flights by this aircraft type
Origin: KBFL Meadows
United States
Destination: KSBA Santa Barbara Mun
United States
More flights between these airports :: More routes between these airports
Route:
File this flight plan on PilotEdge
Remarks:
Altitude:
(Current/Filed)
7,500ft
Speed:
(Current/Filed)
120kts
Departed: 06-Jan-21 08:35 AM
Arrived: 06-Jan-21 09:15 AM
Distance/Time
Traveled:
71nm/0:40
Distance/Time
To Go:
Arrived

Flight Plot

Page will automatically refresh every two minutes.


Map Options




Map Legend


Flown Route
Filed Route
Departure Airport
Arrival Airport
Navaid (VOR, NDB)
Fix

Horizontal Profiles

Position Reports

Time Latitude Longitude Heading Altitude Ground
Speed
06-Jan-21 08:19 35.427594 -119.044785 318 477ft 0kts
06-Jan-21 08:20 35.427594 -119.044786 318 477ft 0kts
06-Jan-21 08:21 35.427988 -119.045206 319 479ft 11kts
06-Jan-21 08:22 35.429456 -119.046320 317 482ft 0kts
06-Jan-21 08:23 35.429456 -119.046320 317 482ft 0kts
06-Jan-21 08:24 35.429456 -119.046320 317 482ft 0kts
06-Jan-21 08:25 35.429456 -119.046320 317 482ft 0kts
06-Jan-21 08:26 35.429456 -119.046320 317 482ft 0kts
06-Jan-21 08:27 35.429456 -119.046319 317 482ft 0kts
06-Jan-21 08:28 35.429456 -119.046319 317 482ft 0kts
06-Jan-21 08:28 35.429456 -119.046319 317 482ft 0kts
06-Jan-21 08:30 35.429456 -119.046319 317 482ft 0kts
06-Jan-21 08:31 35.428899 -119.046854 186 481ft 0kts
06-Jan-21 08:32 35.427187 -119.045882 135 477ft 10kts
06-Jan-21 08:32 35.425775 -119.044718 231 471ft 0kts
06-Jan-21 08:33 35.425775 -119.044718 231 471ft 0kts
06-Jan-21 08:35 35.426295 -119.047139 314 480ft 43kts
06-Jan-21 08:36 35.450869 -119.074334 319 1624ft 142kts
06-Jan-21 08:36 35.474178 -119.100931 316 2332ft 135kts
06-Jan-21 08:37 35.502054 -119.130403 324 2901ft 132kts
06-Jan-21 08:38 35.522721 -119.164236 300 3722ft 128kts
06-Jan-21 08:39 35.512166 -119.194469 180 4376ft 126kts
06-Jan-21 08:40 35.479283 -119.182283 151 4951ft 131kts
06-Jan-21 08:41 35.445308 -119.170550 173 5461ft 126kts
06-Jan-21 08:42 35.409834 -119.164621 173 6074ft 130kts
06-Jan-21 08:43 35.374171 -119.159683 192 6678ft 128kts
06-Jan-21 08:44 35.339109 -119.168336 193 7288ft 128kts
06-Jan-21 08:45 35.303506 -119.177517 193 7623ft 138kts
06-Jan-21 08:46 35.267543 -119.192082 212 7500ft 134kts
06-Jan-21 08:47 35.235765 -119.215946 213 7501ft 133kts
06-Jan-21 08:48 35.204113 -119.239920 213 7503ft 133kts
06-Jan-21 08:49 35.172531 -119.263886 213 7504ft 133kts
06-Jan-21 08:50 35.141600 -119.287349 213 7501ft 130kts
06-Jan-21 08:51 35.110759 -119.310726 213 7502ft 130kts
06-Jan-21 08:52 35.080056 -119.334006 213 7505ft 130kts
06-Jan-21 08:53 35.049275 -119.357345 213 7507ft 130kts
06-Jan-21 08:54 35.018520 -119.380673 213 7512ft 130kts
06-Jan-21 08:55 34.987677 -119.404062 213 7518ft 130kts
06-Jan-21 08:56 34.956928 -119.427384 213 7506ft 130kts
06-Jan-21 08:57 34.926117 -119.450755 213 7518ft 130kts
06-Jan-21 08:58 34.895271 -119.474142 213 7527ft 130kts
06-Jan-21 08:59 34.865730 -119.496552 213 7526ft 130kts
06-Jan-21 09:00 34.834877 -119.519931 213 7524ft 130kts
06-Jan-21 09:01 34.804089 -119.543268 213 7526ft 130kts
06-Jan-21 09:02 34.773229 -119.566653 213 7534ft 130kts
06-Jan-21 09:03 34.742346 -119.590047 213 7532ft 130kts
06-Jan-21 09:04 34.711222 -119.612653 221 7540ft 130kts
06-Jan-21 09:05 34.682044 -119.637453 221 7372ft 130kts
06-Jan-21 09:06 34.651662 -119.664170 224 6938ft 133kts
06-Jan-21 09:07 34.621183 -119.690987 223 6524ft 136kts
06-Jan-21 09:08 34.587855 -119.714905 213 5715ft 142kts
06-Jan-21 09:09 34.553885 -119.735636 212 5345ft 126kts
06-Jan-21 09:10 34.521745 -119.754169 213 5340ft 130kts
06-Jan-21 09:11 34.490238 -119.772756 213 5136ft 129kts
06-Jan-21 09:12 34.452613 -119.787497 193 4074ft 147kts
06-Jan-21 09:13 34.428443 -119.812507 294 1509ft 112kts
06-Jan-21 09:14 34.427775 -119.841024 271 12ft 11kts
06-Jan-21 09:15 34.428769 -119.841942 26 12ft 0kts
06-Jan-21 09:16 34.428769 -119.841942 26 12ft 0kts
06-Jan-21 09:17 34.429571 -119.842258 358 12ft 13kts
06-Jan-21 09:18 34.431564 -119.836887 70 12ft 16kts
06-Jan-21 09:19 34.432789 -119.835197 81 12ft 0kts
06-Jan-21 09:20 34.432789 -119.835197 81 12ft 0kts
06-Jan-21 09:21 34.432789 -119.835197 81 12ft 0kts
06-Jan-21 09:22 34.432789 -119.835197 81 12ft 0kts

Navigation Log

Ident Type
Flight plan parsing failed, navigation log unavailable